sensor_id;sensor_type;location;lat;lon;timestamp;temperature;humidity
19870;DHT22;10097;50.862;4.696;2023-12-22T00:01:14;9.40;99.90
19870;DHT22;10097;50.862;4.696;2023-12-22T00:03:44;9.50;99.90
19870;DHT22;10097;50.862;4.696;2023-12-22T00:06:12;9.60;99.90
19870;DHT22;10097;50.862;4.696;2023-12-22T00:08:38;9.70;99.90
19870;DHT22;10097;50.862;4.696;2023-12-22T00:11:04;9.70;99.90
19870;DHT22;10097;50.862;4.696;2023-12-22T00:13:30;9.80;99.90
19870;DHT22;10097;50.862;4.696;2023-12-22T00:15:55;9.80;99.90
19870;DHT22;10097;50.862;4.696;2023-12-22T00:18:21;9.90;99.90
19870;DHT22;10097;50.862;4.696;2023-12-22T00:20:47;9.90;99.90
19870;DHT22;10097;50.862;4.696;2023-12-22T00:23:12;9.90;99.90
19870;DHT22;10097;50.862;4.696;2023-12-22T00:25:38;10.00;99.90
19870;DHT22;10097;50.862;4.696;2023-12-22T00:28:04;10.10;99.90
19870;DHT22;10097;50.862;4.696;2023-12-22T00:30:29;10.10;99.90
19870;DHT22;10097;50.862;4.696;2023-12-22T00:32:55;10.10;99.90
19870;DHT22;10097;50.862;4.696;2023-12-22T00:35:21;10.10;99.90
19870;DHT22;10097;50.862;4.696;2023-12-22T00:37:46;10.10;99.90
19870;DHT22;10097;50.862;4.696;2023-12-22T00:40:12;10.10;99.90
19870;DHT22;10097;50.862;4.696;2023-12-22T00:42:38;10.00;99.90
19870;DHT22;10097;50.862;4.696;2023-12-22T00:45:04;10.00;99.90
19870;DHT22;10097;50.862;4.696;2023-12-22T00:47:30;10.00;99.90
19870;DHT22;10097;50.862;4.696;2023-12-22T00:49:55;10.00;99.90
19870;DHT22;10097;50.862;4.696;2023-12-22T00:52:21;10.00;99.90
19870;DHT22;10097;50.862;4.696;2023-12-22T00:54:47;10.10;99.90
19870;DHT22;10097;50.862;4.696;2023-12-22T00:57:13;10.00;99.90
19870;DHT22;10097;50.862;4.696;2023-12-22T00:59:39;10.00;99.90
19870;DHT22;10097;50.862;4.696;2023-12-22T01:02:10;9.90;99.90
19870;DHT22;10097;50.862;4.696;2023-12-22T01:04:36;9.90;99.90
19870;DHT22;10097;50.862;4.696;2023-12-22T01:07:02;9.90;99.90
19870;DHT22;10097;50.862;4.696;2023-12-22T01:09:27;9.90;99.90
19870;DHT22;10097;50.862;4.696;2023-12-22T01:11:53;9.90;99.90
19870;DHT22;10097;50.862;4.696;2023-12-22T01:14:19;9.90;99.90
19870;DHT22;10097;50.862;4.696;2023-12-22T01:16:44;9.90;99.90
19870;DHT22;10097;50.862;4.696;2023-12-22T01:19:10;9.90;99.90
19870;DHT22;10097;50.862;4.696;2023-12-22T01:21:35;9.80;99.90
19870;DHT22;10097;50.862;4.696;2023-12-22T01:24:02;9.80;99.90
19870;DHT22;10097;50.862;4.696;2023-12-22T01:26:27;9.90;99.90
19870;DHT22;10097;50.862;4.696;2023-12-22T01:28:53;9.90;99.90
19870;DHT22;10097;50.862;4.696;2023-12-22T01:31:19;9.80;99.90
19870;DHT22;10097;50.862;4.696;2023-12-22T01:33:45;9.90;99.90
19870;DHT22;10097;50.862;4.696;2023-12-22T01:36:10;9.90;99.90
19870;DHT22;10097;50.862;4.696;2023-12-22T01:38:36;10.00;99.90
19870;DHT22;10097;50.862;4.696;2023-12-22T01:41:02;10.10;99.90
19870;DHT22;10097;50.862;4.696;2023-12-22T01:43:27;10.10;99.90
19870;DHT22;10097;50.862;4.696;2023-12-22T01:45:56;10.00;99.90
19870;DHT22;10097;50.862;4.696;2023-12-22T01:48:26;10.00;99.90
19870;DHT22;10097;50.862;4.696;2023-12-22T01:50:52;10.10;99.90
19870;DHT22;10097;50.862;4.696;2023-12-22T01:53:19;10.10;99.90
19870;DHT22;10097;50.862;4.696;2023-12-22T01:55:49;10.10;99.90
19870;DHT22;10097;50.862;4.696;2023-12-22T01:58:16;10.20;99.90
19870;DHT22;10097;50.862;4.696;2023-12-22T02:00:42;10.20;99.90
19870;DHT22;10097;50.862;4.696;2023-12-22T02:03:08;10.20;99.90
19870;DHT22;10097;50.862;4.696;2023-12-22T02:05:34;10.20;99.90
19870;DHT22;10097;50.862;4.696;2023-12-22T02:08:00;10.20;99.90
19870;DHT22;10097;50.862;4.696;2023-12-22T02:10:25;10.20;99.90
19870;DHT22;10097;50.862;4.696;2023-12-22T02:12:51;10.20;99.90
19870;DHT22;10097;50.862;4.696;2023-12-22T02:15:17;10.20;99.90
19870;DHT22;10097;50.862;4.696;2023-12-22T02:20:11;10.20;99.90
19870;DHT22;10097;50.862;4.696;2023-12-22T02:22:37;10.30;99.90
19870;DHT22;10097;50.862;4.696;2023-12-22T02:25:03;10.30;99.90
19870;DHT22;10097;50.862;4.696;2023-12-22T02:27:34;10.20;99.90
19870;DHT22;10097;50.862;4.696;2023-12-22T02:32:51;10.20;99.90
19870;DHT22;10097;50.862;4.696;2023-12-22T02:35:24;10.10;99.90
19870;DHT22;10097;50.862;4.696;2023-12-22T02:37:51;10.10;99.90
19870;DHT22;10097;50.862;4.696;2023-12-22T02:40:18;10.10;99.90
19870;DHT22;10097;50.862;4.696;2023-12-22T02:42:45;10.10;99.90
19870;DHT22;10097;50.862;4.696;2023-12-22T02:45:15;10.10;99.90
19870;DHT22;10097;50.862;4.696;2023-12-22T02:47:41;10.10;99.90
19870;DHT22;10097;50.862;4.696;2023-12-22T02:50:08;10.10;99.90
19870;DHT22;10097;50.862;4.696;2023-12-22T02:52:34;10.10;99.90
19870;DHT22;10097;50.862;4.696;2023-12-22T02:55:01;10.20;99.90
19870;DHT22;10097;50.862;4.696;2023-12-22T02:57:26;10.10;99.90
19870;DHT22;10097;50.862;4.696;2023-12-22T02:59:52;10.10;99.90
19870;DHT22;10097;50.862;4.696;2023-12-22T03:02:17;10.10;99.90
19870;DHT22;10097;50.862;4.696;2023-12-22T03:04:43;10.10;99.90
19870;DHT22;10097;50.862;4.696;2023-12-22T03:07:09;10.10;99.90
19870;DHT22;10097;50.862;4.696;2023-12-22T03:09:34;10.10;99.90
19870;DHT22;10097;50.862;4.696;2023-12-22T03:12:00;10.00;99.90
19870;DHT22;10097;50.862;4.696;2023-12-22T03:14:30;9.90;99.90
19870;DHT22;10097;50.862;4.696;2023-12-22T03:16:56;9.90;99.90
19870;DHT22;10097;50.862;4.696;2023-12-22T03:19:22;10.00;99.90
19870;DHT22;10097;50.862;4.696;2023-12-22T03:21:50;10.10;99.90
19870;DHT22;10097;50.862;4.696;2023-12-22T03:24:16;10.10;99.90
19870;DHT22;10097;50.862;4.696;2023-12-22T03:26:41;10.10;99.90
19870;DHT22;10097;50.862;4.696;2023-12-22T03:29:07;10.00;99.90
19870;DHT22;10097;50.862;4.696;2023-12-22T03:31:32;10.10;99.90
19870;DHT22;10097;50.862;4.696;2023-12-22T03:33:58;10.00;99.90
19870;DHT22;10097;50.862;4.696;2023-12-22T03:36:25;10.00;99.90
19870;DHT22;10097;50.862;4.696;2023-12-22T03:38:50;9.90;99.90
19870;DHT22;10097;50.862;4.696;2023-12-22T03:41:16;9.80;99.90
19870;DHT22;10097;50.862;4.696;2023-12-22T03:43:41;9.80;99.90
19870;DHT22;10097;50.862;4.696;2023-12-22T03:46:07;9.80;99.90
19870;DHT22;10097;50.862;4.696;2023-12-22T03:48:33;9.90;99.90
19870;DHT22;10097;50.862;4.696;2023-12-22T03:50:59;9.90;99.90
19870;DHT22;10097;50.862;4.696;2023-12-22T03:53:24;9.90;99.90
19870;DHT22;10097;50.862;4.696;2023-12-22T03:55:50;9.90;99.90
19870;DHT22;10097;50.862;4.696;2023-12-22T03:58:15;9.80;99.90
19870;DHT22;10097;50.862;4.696;2023-12-22T04:00:41;9.80;99.90
19870;DHT22;10097;50.862;4.696;2023-12-22T04:03:07;9.90;99.90
19870;DHT22;10097;50.862;4.696;2023-12-22T04:05:32;9.90;99.90
19870;DHT22;10097;50.862;4.696;2023-12-22T04:07:58;9.90;99.90
19870;DHT22;10097;50.862;4.696;2023-12-22T04:10:24;9.80;99.90
19870;DHT22;10097;50.862;4.696;2023-12-22T04:12:49;9.80;99.90
19870;DHT22;10097;50.862;4.696;2023-12-22T04:15:15;9.80;99.90
19870;DHT22;10097;50.862;4.696;2023-12-22T04:17:41;9.80;99.90
19870;DHT22;10097;50.862;4.696;2023-12-22T04:20:09;9.70;99.90
19870;DHT22;10097;50.862;4.696;2023-12-22T04:22:35;9.80;99.90
19870;DHT22;10097;50.862;4.696;2023-12-22T04:25:01;9.80;99.90
19870;DHT22;10097;50.862;4.696;2023-12-22T04:27:26;9.80;99.90
19870;DHT22;10097;50.862;4.696;2023-12-22T04:29:52;9.80;99.90
19870;DHT22;10097;50.862;4.696;2023-12-22T04:32:20;9.80;99.90
19870;DHT22;10097;50.862;4.696;2023-12-22T04:34:46;9.80;99.90
19870;DHT22;10097;50.862;4.696;2023-12-22T04:37:11;9.80;99.90
19870;DHT22;10097;50.862;4.696;2023-12-22T04:39:37;9.80;99.90
19870;DHT22;10097;50.862;4.696;2023-12-22T04:42:03;9.80;99.90
19870;DHT22;10097;50.862;4.696;2023-12-22T04:44:28;9.70;99.90
19870;DHT22;10097;50.862;4.696;2023-12-22T04:46:54;9.70;99.90
19870;DHT22;10097;50.862;4.696;2023-12-22T04:49:20;9.70;99.90
19870;DHT22;10097;50.862;4.696;2023-12-22T04:51:45;9.80;99.90
19870;DHT22;10097;50.862;4.696;2023-12-22T04:54:11;9.70;99.90
19870;DHT22;10097;50.862;4.696;2023-12-22T04:56:37;9.70;99.90
19870;DHT22;10097;50.862;4.696;2023-12-22T04:59:02;9.70;99.90
19870;DHT22;10097;50.862;4.696;2023-12-22T05:01:28;9.60;99.90
19870;DHT22;10097;50.862;4.696;2023-12-22T05:03:54;9.60;99.90
19870;DHT22;10097;50.862;4.696;2023-12-22T05:06:20;9.60;99.90
19870;DHT22;10097;50.862;4.696;2023-12-22T05:08:45;9.60;99.90
19870;DHT22;10097;50.862;4.696;2023-12-22T05:11:12;9.50;99.90
19870;DHT22;10097;50.862;4.696;2023-12-22T05:13:38;9.40;99.90
19870;DHT22;10097;50.862;4.696;2023-12-22T05:16:04;9.50;99.90
19870;DHT22;10097;50.862;4.696;2023-12-22T05:18:32;9.40;99.90
19870;DHT22;10097;50.862;4.696;2023-12-22T05:20:58;9.40;99.90
19870;DHT22;10097;50.862;4.696;2023-12-22T05:23:23;9.40;99.90
19870;DHT22;10097;50.862;4.696;2023-12-22T05:25:49;9.40;99.90
19870;DHT22;10097;50.862;4.696;2023-12-22T05:28:15;9.50;99.90
19870;DHT22;10097;50.862;4.696;2023-12-22T05:30:40;9.60;99.90
19870;DHT22;10097;50.862;4.696;2023-12-22T05:33:06;9.50;99.90
19870;DHT22;10097;50.862;4.696;2023-12-22T05:35:31;9.60;99.90
19870;DHT22;10097;50.862;4.696;2023-12-22T05:38:03;9.60;99.90
19870;DHT22;10097;50.862;4.696;2023-12-22T05:40:29;9.70;99.90
19870;DHT22;10097;50.862;4.696;2023-12-22T05:42:55;9.60;99.90
19870;DHT22;10097;50.862;4.696;2023-12-22T05:45:21;9.70;99.90
19870;DHT22;10097;50.862;4.696;2023-12-22T05:47:46;9.60;99.90
19870;DHT22;10097;50.862;4.696;2023-12-22T05:50:12;9.60;99.90
19870;DHT22;10097;50.862;4.696;2023-12-22T05:52:38;9.70;99.90
19870;DHT22;10097;50.862;4.696;2023-12-22T05:55:04;9.70;99.90
19870;DHT22;10097;50.862;4.696;2023-12-22T05:57:29;9.80;99.90
19870;DHT22;10097;50.862;4.696;2023-12-22T05:59:55;9.80;99.90
19870;DHT22;10097;50.862;4.696;2023-12-22T06:02:21;9.80;99.90
19870;DHT22;10097;50.862;4.696;2023-12-22T06:04:46;9.90;99.90
19870;DHT22;10097;50.862;4.696;2023-12-22T06:07:12;10.00;99.90
19870;DHT22;10097;50.862;4.696;2023-12-22T06:09:37;10.00;99.90
19870;DHT22;10097;50.862;4.696;2023-12-22T06:12:05;10.00;99.90
19870;DHT22;10097;50.862;4.696;2023-12-22T06:14:31;10.00;99.90
19870;DHT22;10097;50.862;4.696;2023-12-22T06:16:57;10.10;99.90
19870;DHT22;10097;50.862;4.696;2023-12-22T06:19:23;10.00;99.90
19870;DHT22;10097;50.862;4.696;2023-12-22T06:21:53;10.00;99.90
19870;DHT22;10097;50.862;4.696;2023-12-22T06:24:19;9.90;99.90
19870;DHT22;10097;50.862;4.696;2023-12-22T06:26:45;9.90;99.90
19870;DHT22;10097;50.862;4.696;2023-12-22T06:29:10;9.80;99.90
19870;DHT22;10097;50.862;4.696;2023-12-22T06:31:36;9.90;99.90
19870;DHT22;10097;50.862;4.696;2023-12-22T06:34:02;9.90;99.90
19870;DHT22;10097;50.862;4.696;2023-12-22T06:36:28;9.90;99.90
19870;DHT22;10097;50.862;4.696;2023-12-22T06:38:55;9.80;99.90
19870;DHT22;10097;50.862;4.696;2023-12-22T06:41:28;9.80;99.90
19870;DHT22;10097;50.862;4.696;2023-12-22T06:43:55;9.80;99.90
19870;DHT22;10097;50.862;4.696;2023-12-22T06:46:23;9.70;99.90
19870;DHT22;10097;50.862;4.696;2023-12-22T06:48:51;9.60;99.90
19870;DHT22;10097;50.862;4.696;2023-12-22T06:51:21;9.60;99.90
19870;DHT22;10097;50.862;4.696;2023-12-22T06:53:48;9.60;99.90
19870;DHT22;10097;50.862;4.696;2023-12-22T06:56:24;9.60;99.90
19870;DHT22;10097;50.862;4.696;2023-12-22T06:58:52;9.70;99.90
19870;DHT22;10097;50.862;4.696;2023-12-22T07:01:22;9.70;99.90
19870;DHT22;10097;50.862;4.696;2023-12-22T07:03:49;9.70;99.90
19870;DHT22;10097;50.862;4.696;2023-12-22T07:06:16;9.70;99.90
19870;DHT22;10097;50.862;4.696;2023-12-22T07:08:42;9.60;99.90
19870;DHT22;10097;50.862;4.696;2023-12-22T07:11:11;9.60;99.90
19870;DHT22;10097;50.862;4.696;2023-12-22T07:13:37;9.50;99.90
19870;DHT22;10097;50.862;4.696;2023-12-22T07:16:04;9.50;99.90
19870;DHT22;10097;50.862;4.696;2023-12-22T07:18:31;9.40;99.90
19870;DHT22;10097;50.862;4.696;2023-12-22T07:20:57;9.40;99.90
19870;DHT22;10097;50.862;4.696;2023-12-22T07:23:24;9.40;99.90
19870;DHT22;10097;50.862;4.696;2023-12-22T07:25:49;9.40;99.90
19870;DHT22;10097;50.862;4.696;2023-12-22T07:28:15;9.30;99.90
19870;DHT22;10097;50.862;4.696;2023-12-22T07:30:41;9.30;99.90
19870;DHT22;10097;50.862;4.696;2023-12-22T07:33:07;9.30;99.90
19870;DHT22;10097;50.862;4.696;2023-12-22T07:35:33;9.30;99.90
19870;DHT22;10097;50.862;4.696;2023-12-22T07:37:59;9.30;99.90
19870;DHT22;10097;50.862;4.696;2023-12-22T07:40:25;9.30;99.90
19870;DHT22;10097;50.862;4.696;2023-12-22T07:42:51;9.20;99.90
19870;DHT22;10097;50.862;4.696;2023-12-22T07:45:16;9.20;99.90
19870;DHT22;10097;50.862;4.696;2023-12-22T07:47:42;9.30;99.90
19870;DHT22;10097;50.862;4.696;2023-12-22T07:50:08;9.30;99.90
19870;DHT22;10097;50.862;4.696;2023-12-22T07:52:37;9.30;99.90
19870;DHT22;10097;50.862;4.696;2023-12-22T07:55:06;9.30;99.90
19870;DHT22;10097;50.862;4.696;2023-12-22T07:57:32;9.40;99.90
19870;DHT22;10097;50.862;4.696;2023-12-22T07:59:58;9.40;99.90
19870;DHT22;10097;50.862;4.696;2023-12-22T08:02:24;9.40;99.90
19870;DHT22;10097;50.862;4.696;2023-12-22T08:04:49;9.40;99.90
19870;DHT22;10097;50.862;4.696;2023-12-22T08:07:16;9.40;99.90
19870;DHT22;10097;50.862;4.696;2023-12-22T08:09:41;9.50;99.90
19870;DHT22;10097;50.862;4.696;2023-12-22T08:12:07;9.50;99.90
19870;DHT22;10097;50.862;4.696;2023-12-22T08:14:33;9.50;99.90
19870;DHT22;10097;50.862;4.696;2023-12-22T08:16:59;9.60;99.90
19870;DHT22;10097;50.862;4.696;2023-12-22T08:19:24;9.60;99.90
19870;DHT22;10097;50.862;4.696;2023-12-22T08:21:52;9.70;99.90
19870;DHT22;10097;50.862;4.696;2023-12-22T08:24:19;9.70;99.90
19870;DHT22;10097;50.862;4.696;2023-12-22T08:26:44;9.70;99.90
19870;DHT22;10097;50.862;4.696;2023-12-22T08:29:10;9.70;99.90
19870;DHT22;10097;50.862;4.696;2023-12-22T08:31:36;9.70;99.90
19870;DHT22;10097;50.862;4.696;2023-12-22T08:34:07;9.70;99.90
19870;DHT22;10097;50.862;4.696;2023-12-22T08:36:33;9.70;99.90
19870;DHT22;10097;50.862;4.696;2023-12-22T08:38:59;9.70;99.90
19870;DHT22;10097;50.862;4.696;2023-12-22T08:41:24;9.70;99.90
19870;DHT22;10097;50.862;4.696;2023-12-22T08:43:50;9.70;99.90
19870;DHT22;10097;50.862;4.696;2023-12-22T08:46:16;9.70;99.90
19870;DHT22;10097;50.862;4.696;2023-12-22T08:48:42;9.70;99.90
19870;DHT22;10097;50.862;4.696;2023-12-22T08:51:08;9.70;99.90
19870;DHT22;10097;50.862;4.696;2023-12-22T08:53:34;9.80;99.90
19870;DHT22;10097;50.862;4.696;2023-12-22T08:56:03;9.80;99.90
19870;DHT22;10097;50.862;4.696;2023-12-22T08:58:29;9.80;99.90
19870;DHT22;10097;50.862;4.696;2023-12-22T09:00:55;9.90;99.90
19870;DHT22;10097;50.862;4.696;2023-12-22T09:03:20;10.00;99.90
19870;DHT22;10097;50.862;4.696;2023-12-22T09:05:46;10.10;99.90
19870;DHT22;10097;50.862;4.696;2023-12-22T09:08:12;10.10;99.90
19870;DHT22;10097;50.862;4.696;2023-12-22T09:10:38;10.10;99.90
19870;DHT22;10097;50.862;4.696;2023-12-22T09:13:04;10.10;99.90
19870;DHT22;10097;50.862;4.696;2023-12-22T09:15:29;10.10;99.90
19870;DHT22;10097;50.862;4.696;2023-12-22T09:17:55;10.10;99.90
19870;DHT22;10097;50.862;4.696;2023-12-22T09:20:21;10.10;99.90
19870;DHT22;10097;50.862;4.696;2023-12-22T09:22:47;10.10;99.90
19870;DHT22;10097;50.862;4.696;2023-12-22T09:25:13;10.10;99.90
19870;DHT22;10097;50.862;4.696;2023-12-22T09:27:39;10.10;99.90
19870;DHT22;10097;50.862;4.696;2023-12-22T09:30:05;10.10;99.90
19870;DHT22;10097;50.862;4.696;2023-12-22T09:32:32;10.10;99.90
19870;DHT22;10097;50.862;4.696;2023-12-22T09:34:58;10.10;99.90
19870;DHT22;10097;50.862;4.696;2023-12-22T09:37:26;10.20;99.90
19870;DHT22;10097;50.862;4.696;2023-12-22T09:39:52;10.10;99.90
19870;DHT22;10097;50.862;4.696;2023-12-22T09:42:17;10.20;99.90
19870;DHT22;10097;50.862;4.696;2023-12-22T09:44:45;10.10;99.90
19870;DHT22;10097;50.862;4.696;2023-12-22T09:47:12;10.10;99.90
19870;DHT22;10097;50.862;4.696;2023-12-22T09:49:39;10.20;99.90
19870;DHT22;10097;50.862;4.696;2023-12-22T09:52:07;10.20;99.90
19870;DHT22;10097;50.862;4.696;2023-12-22T09:54:33;10.20;99.90
19870;DHT22;10097;50.862;4.696;2023-12-22T09:57:00;10.20;99.90
19870;DHT22;10097;50.862;4.696;2023-12-22T09:59:27;10.20;99.90
19870;DHT22;10097;50.862;4.696;2023-12-22T10:01:55;10.20;99.90
19870;DHT22;10097;50.862;4.696;2023-12-22T10:04:21;10.20;99.90
19870;DHT22;10097;50.862;4.696;2023-12-22T10:06:47;10.20;99.90
19870;DHT22;10097;50.862;4.696;2023-12-22T10:09:16;10.30;99.90
19870;DHT22;10097;50.862;4.696;2023-12-22T10:11:44;10.20;99.90
19870;DHT22;10097;50.862;4.696;2023-12-22T10:14:10;10.30;99.90
19870;DHT22;10097;50.862;4.696;2023-12-22T10:16:39;10.30;99.90
19870;DHT22;10097;50.862;4.696;2023-12-22T10:19:05;10.40;99.90
19870;DHT22;10097;50.862;4.696;2023-12-22T10:21:32;10.40;99.90
19870;DHT22;10097;50.862;4.696;2023-12-22T10:23:58;10.50;99.90
19870;DHT22;10097;50.862;4.696;2023-12-22T10:26:23;10.50;99.90
19870;DHT22;10097;50.862;4.696;2023-12-22T10:28:50;10.50;99.90
19870;DHT22;10097;50.862;4.696;2023-12-22T10:31:17;10.50;99.90
19870;DHT22;10097;50.862;4.696;2023-12-22T10:33:45;10.50;99.90
19870;DHT22;10097;50.862;4.696;2023-12-22T10:36:11;10.60;99.90
19870;DHT22;10097;50.862;4.696;2023-12-22T10:38:37;10.70;99.90
19870;DHT22;10097;50.862;4.696;2023-12-22T10:41:03;10.80;99.90
19870;DHT22;10097;50.862;4.696;2023-12-22T10:43:30;10.90;99.90
19870;DHT22;10097;50.862;4.696;2023-12-22T10:45:56;10.90;99.90
19870;DHT22;10097;50.862;4.696;2023-12-22T10:48:25;11.00;99.90
19870;DHT22;10097;50.862;4.696;2023-12-22T10:50:51;11.00;99.90
19870;DHT22;10097;50.862;4.696;2023-12-22T10:53:16;11.10;99.90
19870;DHT22;10097;50.862;4.696;2023-12-22T10:55:42;11.10;99.90
19870;DHT22;10097;50.862;4.696;2023-12-22T10:58:09;10.90;99.90
19870;DHT22;10097;50.862;4.696;2023-12-22T11:00:39;10.80;99.90
19870;DHT22;10097;50.862;4.696;2023-12-22T11:03:08;10.70;99.90
19870;DHT22;10097;50.862;4.696;2023-12-22T11:05:36;10.50;99.90
19870;DHT22;10097;50.862;4.696;2023-12-22T11:08:03;10.50;99.90
19870;DHT22;10097;50.862;4.696;2023-12-22T11:10:32;10.40;99.90
19870;DHT22;10097;50.862;4.696;2023-12-22T11:12:59;10.30;99.90
19870;DHT22;10097;50.862;4.696;2023-12-22T11:15:26;10.30;99.90
19870;DHT22;10097;50.862;4.696;2023-12-22T11:17:56;10.40;99.90
19870;DHT22;10097;50.862;4.696;2023-12-22T11:20:23;10.40;99.90
19870;DHT22;10097;50.862;4.696;2023-12-22T11:22:50;10.40;99.90
19870;DHT22;10097;50.862;4.696;2023-12-22T11:25:17;10.40;99.90
19870;DHT22;10097;50.862;4.696;2023-12-22T11:27:43;10.30;99.90
19870;DHT22;10097;50.862;4.696;2023-12-22T11:30:14;10.30;99.90
19870;DHT22;10097;50.862;4.696;2023-12-22T11:32:40;10.30;99.90
19870;DHT22;10097;50.862;4.696;2023-12-22T11:35:07;10.30;99.90
19870;DHT22;10097;50.862;4.696;2023-12-22T11:37:35;10.30;99.90
19870;DHT22;10097;50.862;4.696;2023-12-22T11:40:02;10.20;99.90
19870;DHT22;10097;50.862;4.696;2023-12-22T11:42:30;10.30;99.90
19870;DHT22;10097;50.862;4.696;2023-12-22T11:45:02;10.30;99.90
19870;DHT22;10097;50.862;4.696;2023-12-22T11:47:28;10.40;99.90
19870;DHT22;10097;50.862;4.696;2023-12-22T11:49:54;10.40;99.90
19870;DHT22;10097;50.862;4.696;2023-12-22T11:52:26;10.40;99.90
19870;DHT22;10097;50.862;4.696;2023-12-22T11:54:54;10.30;99.90
19870;DHT22;10097;50.862;4.696;2023-12-22T11:57:33;10.40;99.90
19870;DHT22;10097;50.862;4.696;2023-12-22T12:00:05;10.40;99.90
19870;DHT22;10097;50.862;4.696;2023-12-22T12:02:36;10.30;99.90
19870;DHT22;10097;50.862;4.696;2023-12-22T12:05:03;10.40;99.90
19870;DHT22;10097;50.862;4.696;2023-12-22T12:07:42;10.50;99.90
19870;DHT22;10097;50.862;4.696;2023-12-22T12:13:10;10.50;99.90
19870;DHT22;10097;50.862;4.696;2023-12-22T12:15:36;10.50;99.90
19870;DHT22;10097;50.862;4.696;2023-12-22T12:18:03;10.50;99.90
19870;DHT22;10097;50.862;4.696;2023-12-22T12:20:30;10.40;99.90
19870;DHT22;10097;50.862;4.696;2023-12-22T12:22:56;10.40;99.90
19870;DHT22;10097;50.862;4.696;2023-12-22T12:25:23;10.40;99.90
19870;DHT22;10097;50.862;4.696;2023-12-22T12:28:05;10.40;99.90
19870;DHT22;10097;50.862;4.696;2023-12-22T12:30:32;10.40;99.90
19870;DHT22;10097;50.862;4.696;2023-12-22T12:33:11;10.40;99.90
19870;DHT22;10097;50.862;4.696;2023-12-22T12:35:41;10.50;99.90
19870;DHT22;10097;50.862;4.696;2023-12-22T12:38:09;10.70;99.90
19870;DHT22;10097;50.862;4.696;2023-12-22T12:40:37;10.70;99.90
19870;DHT22;10097;50.862;4.696;2023-12-22T12:43:05;10.70;99.90
19870;DHT22;10097;50.862;4.696;2023-12-22T12:45:31;10.80;99.90
19870;DHT22;10097;50.862;4.696;2023-12-22T12:47:58;10.80;99.90
19870;DHT22;10097;50.862;4.696;2023-12-22T12:50:24;10.80;99.90
19870;DHT22;10097;50.862;4.696;2023-12-22T12:52:52;10.70;99.90
19870;DHT22;10097;50.862;4.696;2023-12-22T12:55:20;10.70;99.90
19870;DHT22;10097;50.862;4.696;2023-12-22T12:57:48;10.60;99.90
19870;DHT22;10097;50.862;4.696;2023-12-22T13:00:15;10.60;99.90
19870;DHT22;10097;50.862;4.696;2023-12-22T13:02:41;10.60;99.90
19870;DHT22;10097;50.862;4.696;2023-12-22T13:05:17;10.50;99.90
19870;DHT22;10097;50.862;4.696;2023-12-22T13:07:45;10.50;99.90
19870;DHT22;10097;50.862;4.696;2023-12-22T13:10:21;10.50;99.90
19870;DHT22;10097;50.862;4.696;2023-12-22T13:12:47;10.50;99.90
19870;DHT22;10097;50.862;4.696;2023-12-22T13:15:14;10.50;99.90
19870;DHT22;10097;50.862;4.696;2023-12-22T13:17:39;10.50;99.90
19870;DHT22;10097;50.862;4.696;2023-12-22T13:20:05;10.50;99.90
19870;DHT22;10097;50.862;4.696;2023-12-22T13:22:31;10.40;99.90
19870;DHT22;10097;50.862;4.696;2023-12-22T13:24:57;10.50;99.90
19870;DHT22;10097;50.862;4.696;2023-12-22T13:27:25;10.40;99.90
19870;DHT22;10097;50.862;4.696;2023-12-22T13:29:51;10.50;99.90
19870;DHT22;10097;50.862;4.696;2023-12-22T13:32:20;10.50;99.90
19870;DHT22;10097;50.862;4.696;2023-12-22T13:34:51;10.50;99.90
19870;DHT22;10097;50.862;4.696;2023-12-22T13:37:18;10.60;99.90
19870;DHT22;10097;50.862;4.696;2023-12-22T13:39:44;10.60;99.90
19870;DHT22;10097;50.862;4.696;2023-12-22T13:42:17;10.60;99.90
19870;DHT22;10097;50.862;4.696;2023-12-22T13:44:47;10.60;99.90
19870;DHT22;10097;50.862;4.696;2023-12-22T13:47:20;10.50;99.90
19870;DHT22;10097;50.862;4.696;2023-12-22T13:49:46;10.60;99.90
19870;DHT22;10097;50.862;4.696;2023-12-22T13:52:26;10.60;99.90
19870;DHT22;10097;50.862;4.696;2023-12-22T13:54:53;10.60;99.90
19870;DHT22;10097;50.862;4.696;2023-12-22T13:57:21;10.60;99.90
19870;DHT22;10097;50.862;4.696;2023-12-22T13:59:47;10.50;99.90
19870;DHT22;10097;50.862;4.696;2023-12-22T14:02:13;10.50;99.90
19870;DHT22;10097;50.862;4.696;2023-12-22T14:04:38;10.50;99.90
19870;DHT22;10097;50.862;4.696;2023-12-22T14:07:04;10.50;99.90
19870;DHT22;10097;50.862;4.696;2023-12-22T14:09:30;10.50;99.90
19870;DHT22;10097;50.862;4.696;2023-12-22T14:11:59;10.40;99.90
19870;DHT22;10097;50.862;4.696;2023-12-22T14:14:24;10.40;99.90
19870;DHT22;10097;50.862;4.696;2023-12-22T14:16:50;10.40;99.90
19870;DHT22;10097;50.862;4.696;2023-12-22T14:19:16;10.40;99.90
19870;DHT22;10097;50.862;4.696;2023-12-22T14:21:41;10.50;99.90
19870;DHT22;10097;50.862;4.696;2023-12-22T14:24:07;10.50;99.90
19870;DHT22;10097;50.862;4.696;2023-12-22T14:26:33;10.50;99.90
19870;DHT22;10097;50.862;4.696;2023-12-22T14:28:58;10.50;99.90
19870;DHT22;10097;50.862;4.696;2023-12-22T14:31:24;10.50;99.90
19870;DHT22;10097;50.862;4.696;2023-12-22T14:33:50;10.50;99.90
19870;DHT22;10097;50.862;4.696;2023-12-22T14:36:15;10.50;99.90
19870;DHT22;10097;50.862;4.696;2023-12-22T14:38:42;10.50;99.90
19870;DHT22;10097;50.862;4.696;2023-12-22T14:41:08;10.50;99.90
19870;DHT22;10097;50.862;4.696;2023-12-22T14:43:34;10.50;99.90
19870;DHT22;10097;50.862;4.696;2023-12-22T14:45:59;10.60;99.90
19870;DHT22;10097;50.862;4.696;2023-12-22T14:48:25;10.60;99.90
19870;DHT22;10097;50.862;4.696;2023-12-22T14:50:51;10.60;99.90
19870;DHT22;10097;50.862;4.696;2023-12-22T14:53:16;10.60;99.90
19870;DHT22;10097;50.862;4.696;2023-12-22T14:55:42;10.70;99.90
19870;DHT22;10097;50.862;4.696;2023-12-22T14:58:08;10.70;99.90
19870;DHT22;10097;50.862;4.696;2023-12-22T15:00:35;10.70;99.90
19870;DHT22;10097;50.862;4.696;2023-12-22T15:03:01;10.70;99.90
19870;DHT22;10097;50.862;4.696;2023-12-22T15:05:27;10.80;99.90
19870;DHT22;10097;50.862;4.696;2023-12-22T15:07:55;10.80;99.90
19870;DHT22;10097;50.862;4.696;2023-12-22T15:10:21;10.90;99.90
19870;DHT22;10097;50.862;4.696;2023-12-22T15:12:46;11.00;99.90
19870;DHT22;10097;50.862;4.696;2023-12-22T15:15:13;11.00;99.90
19870;DHT22;10097;50.862;4.696;2023-12-22T15:17:39;11.10;99.90
19870;DHT22;10097;50.862;4.696;2023-12-22T15:20:05;11.10;99.90
19870;DHT22;10097;50.862;4.696;2023-12-22T15:22:31;11.10;99.90
19870;DHT22;10097;50.862;4.696;2023-12-22T15:24:57;11.10;99.90
19870;DHT22;10097;50.862;4.696;2023-12-22T15:27:23;11.10;99.90
19870;DHT22;10097;50.862;4.696;2023-12-22T15:29:49;11.20;99.90
19870;DHT22;10097;50.862;4.696;2023-12-22T15:32:15;11.20;99.90
19870;DHT22;10097;50.862;4.696;2023-12-22T15:34:41;11.30;99.90
19870;DHT22;10097;50.862;4.696;2023-12-22T15:37:08;11.20;99.90
19870;DHT22;10097;50.862;4.696;2023-12-22T15:39:34;11.20;99.90
19870;DHT22;10097;50.862;4.696;2023-12-22T15:41:59;11.30;99.90